<?xml version="1.0" encoding="UTF-8" standalone="no" ?>
<gpx xmlns="http://www.topografix.com/GPX/1/1" xmlns:xsi="http://www.w3.org/2001/XMLSchema-instance" xsi:schemaLocation="http://www.topografix.com/GPX/1/1 http://www.topografix.com/GPX/1/1/gpx.xsd" version="1.1" creator="VisuGPX - https://www.visugpx.com">
  <metadata>
    <name>RMcAWYidap</name>
    <desc><![CDATA[

]]></desc>
  </metadata>
  <trk>
    <name><![CDATA[RMcAWYidap_1]]></name>
    <trkseg>
      <trkpt lat="46.15233" lon="4.5792">
        <ele>392</ele>
        <time>2020-10-19T14:31:56Z</time>
      </trkpt>
      <trkpt lat="46.15233" lon="4.5792">
        <ele>392</ele>
        <time>2020-10-19T14:31:56Z</time>
      </trkpt>
      <trkpt lat="46.15233" lon="4.5792">
        <ele>391.8</ele>
        <time>2020-10-19T14:31:57Z</time>
      </trkpt>
      <trkpt lat="46.15233" lon="4.5792">
        <ele>391.6</ele>
        <time>2020-10-19T14:31:58Z</time>
      </trkpt>
      <trkpt lat="46.15232" lon="4.57922">
        <ele>391.4</ele>
        <time>2020-10-19T14:31:59Z</time>
      </trkpt>
      <trkpt lat="46.15232" lon="4.57922">
        <ele>391.2</ele>
        <time>2020-10-19T14:32:00Z</time>
      </trkpt>
      <trkpt lat="46.15232" lon="4.57927">
        <ele>391</ele>
        <time>2020-10-19T14:32:01Z</time>
      </trkpt>
      <trkpt lat="46.15232" lon="4.5793">
        <ele>391</ele>
        <time>2020-10-19T14:32:02Z</time>
      </trkpt>
      <trkpt lat="46.15232" lon="4.57933">
        <ele>390.6</ele>
        <time>2020-10-19T14:32:03Z</time>
      </trkpt>
      <trkpt lat="46.15233" lon="4.57936">
        <ele>390.6</ele>
        <time>2020-10-19T14:32:04Z</time>
      </trkpt>
      <trkpt lat="46.15233" lon="4.57939">
        <ele>390</ele>
        <time>2020-10-19T14:32:05Z</time>
      </trkpt>
      <trkpt lat="46.15234" lon="4.57942">
        <ele>389.6</ele>
        <time>2020-10-19T14:32:06Z</time>
      </trkpt>
      <trkpt lat="46.15235" lon="4.57946">
        <ele>389</ele>
        <time>2020-10-19T14:32:07Z</time>
      </trkpt>
      <trkpt lat="46.15236" lon="4.57949">
        <ele>388.4</ele>
        <time>2020-10-19T14:32:08Z</time>
      </trkpt>
      <trkpt lat="46.15236" lon="4.57952">
        <ele>388.2</ele>
        <time>2020-10-19T14:32:09Z</time>
      </trkpt>
      <trkpt lat="46.15237" lon="4.57955">
        <ele>387.8</ele>
        <time>2020-10-19T14:32:10Z</time>
      </trkpt>
      <trkpt lat="46.15237" lon="4.57958">
        <ele>387.8</ele>
        <time>2020-10-19T14:32:11Z</time>
      </trkpt>
      <trkpt lat="46.15238" lon="4.57961">
        <ele>387.2</ele>
        <time>2020-10-19T14:32:12Z</time>
      </trkpt>
      <trkpt lat="46.15239" lon="4.57963">
        <ele>386.6</ele>
        <time>2020-10-19T14:32:13Z</time>
      </trkpt>
      <trkpt lat="46.15239" lon="4.57963">
        <ele>386.4</ele>
        <time>2020-10-19T14:32:14Z</time>
      </trkpt>
      <trkpt lat="46.1524" lon="4.57968">
        <ele>386</ele>
        <time>2020-10-19T14:32:15Z</time>
      </trkpt>
      <trkpt lat="46.15241" lon="4.57971">
        <ele>385.8</ele>
        <time>2020-10-19T14:32:16Z</time>
      </trkpt>
      <trkpt lat="46.15242" lon="4.57974">
        <ele>384.8</ele>
        <time>2020-10-19T14:32:17Z</time>
      </trkpt>
      <trkpt lat="46.15244" lon="4.57976">
        <ele>384.2</ele>
        <time>2020-10-19T14:32:18Z</time>
      </trkpt>
      <trkpt lat="46.15245" lon="4.57979">
        <ele>384.2</ele>
        <time>2020-10-19T14:32:19Z</time>
      </trkpt>
      <trkpt lat="46.15246" lon="4.57982">
        <ele>384</ele>
        <time>2020-10-19T14:32:20Z</time>
      </trkpt>
      <trkpt lat="46.15247" lon="4.57985">
        <ele>383.8</ele>
        <time>2020-10-19T14:32:21Z</time>
      </trkpt>
      <trkpt lat="46.15247" lon="4.57988">
        <ele>383</ele>
        <time>2020-10-19T14:32:22Z</time>
      </trkpt>
      <trkpt lat="46.15249" lon="4.5799">
        <ele>382.6</ele>
        <time>2020-10-19T14:32:23Z</time>
      </trkpt>
      <trkpt lat="46.15249" lon="4.5799">
        <ele>382.6</ele>
        <time>2020-10-19T14:32:24Z</time>
      </trkpt>
      <trkpt lat="46.15251" lon="4.57995">
        <ele>382</ele>
        <time>2020-10-19T14:32:25Z</time>
      </trkpt>
      <trkpt lat="46.15251" lon="4.57995">
        <ele>382</ele>
        <time>2020-10-19T14:32:26Z</time>
      </trkpt>
      <trkpt lat="46.15253" lon="4.57999">
        <ele>381.4</ele>
        <time>2020-10-19T14:32:27Z</time>
      </trkpt>
      <trkpt lat="46.15254" lon="4.58002">
        <ele>381</ele>
        <time>2020-10-19T14:32:28Z</time>
      </trkpt>
      <trkpt lat="46.15255" lon="4.58004">
        <ele>381.2</ele>
        <time>2020-10-19T14:32:29Z</time>
      </trkpt>
      <trkpt lat="46.15257" lon="4.58006">
        <ele>380.8</ele>
        <time>2020-10-19T14:32:30Z</time>
      </trkpt>
      <trkpt lat="46.15258" lon="4.58008">
        <ele>380.2</ele>
        <time>2020-10-19T14:32:31Z</time>
      </trkpt>
      <trkpt lat="46.1526" lon="4.58011">
        <ele>380</ele>
        <time>2020-10-19T14:32:32Z</time>
      </trkpt>
      <trkpt lat="46.15261" lon="4.58013">
        <ele>379.4</ele>
        <time>2020-10-19T14:32:33Z</time>
      </trkpt>
      <trkpt lat="46.15263" lon="4.58015">
        <ele>379.2</ele>
        <time>2020-10-19T14:32:34Z</time>
      </trkpt>
      <trkpt lat="46.15264" lon="4.58018">
        <ele>378.8</ele>
        <time>2020-10-19T14:32:35Z</time>
      </trkpt>
      <trkpt lat="46.15266" lon="4.5802">
        <ele>378.2</ele>
        <time>2020-10-19T14:32:36Z</time>
      </trkpt>
      <trkpt lat="46.15268" lon="4.58022">
        <ele>378.2</ele>
        <time>2020-10-19T14:32:37Z</time>
      </trkpt>
      <trkpt lat="46.15269" lon="4.58024">
        <ele>377.8</ele>
        <time>2020-10-19T14:32:38Z</time>
      </trkpt>
      <trkpt lat="46.15271" lon="4.58027">
        <ele>377.6</ele>
        <time>2020-10-19T14:32:39Z</time>
      </trkpt>
      <trkpt lat="46.15272" lon="4.58029">
        <ele>377.2</ele>
        <time>2020-10-19T14:32:40Z</time>
      </trkpt>
      <trkpt lat="46.15274" lon="4.58031">
        <ele>376.6</ele>
        <time>2020-10-19T14:32:41Z</time>
      </trkpt>
      <trkpt lat="46.15275" lon="4.58033">
        <ele>376.6</ele>
        <time>2020-10-19T14:32:42Z</time>
      </trkpt>
      <trkpt lat="46.15277" lon="4.58035">
        <ele>376</ele>
        <time>2020-10-19T14:32:43Z</time>
      </trkpt>
      <trkpt lat="46.15278" lon="4.58036">
        <ele>375.6</ele>
        <time>2020-10-19T14:32:44Z</time>
      </trkpt>
      <trkpt lat="46.1528" lon="4.58038">
        <ele>375.6</ele>
        <time>2020-10-19T14:32:45Z</time>
      </trkpt>
      <trkpt lat="46.15281" lon="4.5804">
        <ele>375</ele>
        <time>2020-10-19T14:32:46Z</time>
      </trkpt>
      <trkpt lat="46.15282" lon="4.58042">
        <ele>374.8</ele>
        <time>2020-10-19T14:32:47Z</time>
      </trkpt>
      <trkpt lat="46.15284" lon="4.58045">
        <ele>374.4</ele>
        <time>2020-10-19T14:32:48Z</time>
      </trkpt>
      <trkpt lat="46.15286" lon="4.58047">
        <ele>373.6</ele>
        <time>2020-10-19T14:32:49Z</time>
      </trkpt>
      <trkpt lat="46.15287" lon="4.58049">
        <ele>373.4</ele>
        <time>2020-10-19T14:32:50Z</time>
      </trkpt>
      <trkpt lat="46.15289" lon="4.58051">
        <ele>373</ele>
        <time>2020-10-19T14:32:51Z</time>
      </trkpt>
      <trkpt lat="46.15291" lon="4.58053">
        <ele>372.8</ele>
        <time>2020-10-19T14:32:52Z</time>
      </trkpt>
      <trkpt lat="46.15292" lon="4.58055">
        <ele>372.2</ele>
        <time>2020-10-19T14:32:53Z</time>
      </trkpt>
      <trkpt lat="46.15292" lon="4.58055">
        <ele>371.8</ele>
        <time>2020-10-19T14:32:54Z</time>
      </trkpt>
      <trkpt lat="46.15295" lon="4.58059">
        <ele>371.4</ele>
        <time>2020-10-19T14:32:55Z</time>
      </trkpt>
      <trkpt lat="46.15295" lon="4.58059">
        <ele>371</ele>
        <time>2020-10-19T14:32:56Z</time>
      </trkpt>
      <trkpt lat="46.15296" lon="4.58062">
        <ele>370.8</ele>
        <time>2020-10-19T14:32:57Z</time>
      </trkpt>
      <trkpt lat="46.15296" lon="4.58062">
        <ele>370.6</ele>
        <time>2020-10-19T14:32:58Z</time>
      </trkpt>
      <trkpt lat="46.15298" lon="4.58065">
        <ele>370.2</ele>
        <time>2020-10-19T14:32:59Z</time>
      </trkpt>
      <trkpt lat="46.15298" lon="4.58065">
        <ele>369.4</ele>
        <time>2020-10-19T14:33:00Z</time>
      </trkpt>
      <trkpt lat="46.15299" lon="4.58067">
        <ele>369</ele>
        <time>2020-10-19T14:33:01Z</time>
      </trkpt>
      <trkpt lat="46.15299" lon="4.58067">
        <ele>368.6</ele>
        <time>2020-10-19T14:33:02Z</time>
      </trkpt>
      <trkpt lat="46.15302" lon="4.58069">
        <ele>368.2</ele>
        <time>2020-10-19T14:33:03Z</time>
      </trkpt>
      <trkpt lat="46.15302" lon="4.58069">
        <ele>367.6</ele>
        <time>2020-10-19T14:33:04Z</time>
      </trkpt>
      <trkpt lat="46.15304" lon="4.58071">
        <ele>367.6</ele>
        <time>2020-10-19T14:33:05Z</time>
      </trkpt>
      <trkpt lat="46.15304" lon="4.58071">
        <ele>367.4</ele>
        <time>2020-10-19T14:33:06Z</time>
      </trkpt>
      <trkpt lat="46.15306" lon="4.58074">
        <ele>367.2</ele>
        <time>2020-10-19T14:33:07Z</time>
      </trkpt>
      <trkpt lat="46.15307" lon="4.58075">
        <ele>367</ele>
        <time>2020-10-19T14:33:08Z</time>
      </trkpt>
      <trkpt lat="46.15307" lon="4.58075">
        <ele>366.8</ele>
        <time>2020-10-19T14:33:09Z</time>
      </trkpt>
      <trkpt lat="46.1531" lon="4.58079">
        <ele>366.4</ele>
        <time>2020-10-19T14:33:10Z</time>
      </trkpt>
      <trkpt lat="46.15312" lon="4.5808">
        <ele>366.4</ele>
        <time>2020-10-19T14:33:11Z</time>
      </trkpt>
      <trkpt lat="46.15313" lon="4.58083">
        <ele>365.8</ele>
        <time>2020-10-19T14:33:12Z</time>
      </trkpt>
      <trkpt lat="46.15315" lon="4.58085">
        <ele>365</ele>
        <time>2020-10-19T14:33:13Z</time>
      </trkpt>
      <trkpt lat="46.15316" lon="4.58087">
        <ele>364.8</ele>
        <time>2020-10-19T14:33:14Z</time>
      </trkpt>
      <trkpt lat="46.15317" lon="4.5809">
        <ele>364.6</ele>
        <time>2020-10-19T14:33:15Z</time>
      </trkpt>
      <trkpt lat="46.15318" lon="4.58092">
        <ele>364.4</ele>
        <time>2020-10-19T14:33:16Z</time>
      </trkpt>
      <trkpt lat="46.1532" lon="4.58095">
        <ele>363.8</ele>
        <time>2020-10-19T14:33:17Z</time>
      </trkpt>
      <trkpt lat="46.15322" lon="4.58096">
        <ele>363.4</ele>
        <time>2020-10-19T14:33:18Z</time>
      </trkpt>
      <trkpt lat="46.15323" lon="4.58099">
        <ele>363.2</ele>
        <time>2020-10-19T14:33:19Z</time>
      </trkpt>
      <trkpt lat="46.15325" lon="4.58102">
        <ele>362.8</ele>
        <time>2020-10-19T14:33:20Z</time>
      </trkpt>
      <trkpt lat="46.15326" lon="4.58104">
        <ele>362.6</ele>
        <time>2020-10-19T14:33:21Z</time>
      </trkpt>
      <trkpt lat="46.15326" lon="4.58104">
        <ele>361.6</ele>
        <time>2020-10-19T14:33:22Z</time>
      </trkpt>
      <trkpt lat="46.15328" lon="4.58107">
        <ele>361.4</ele>
        <time>2020-10-19T14:33:23Z</time>
      </trkpt>
      <trkpt lat="46.15328" lon="4.58107">
        <ele>361</ele>
        <time>2020-10-19T14:33:24Z</time>
      </trkpt>
      <trkpt lat="46.1533" lon="4.5811">
        <ele>360.4</ele>
        <time>2020-10-19T14:33:25Z</time>
      </trkpt>
      <trkpt lat="46.1533" lon="4.5811">
        <ele>360.2</ele>
        <time>2020-10-19T14:33:26Z</time>
      </trkpt>
      <trkpt lat="46.15332" lon="4.58113">
        <ele>359.8</ele>
        <time>2020-10-19T14:33:27Z</time>
      </trkpt>
      <trkpt lat="46.15332" lon="4.58113">
        <ele>359.4</ele>
        <time>2020-10-19T14:33:28Z</time>
      </trkpt>
      <trkpt lat="46.15334" lon="4.58117">
        <ele>359</ele>
        <time>2020-10-19T14:33:29Z</time>
      </trkpt>
      <trkpt lat="46.15334" lon="4.5812">
        <ele>358.8</ele>
        <time>2020-10-19T14:33:30Z</time>
      </trkpt>
      <trkpt lat="46.15334" lon="4.5812">
        <ele>358.6</ele>
        <time>2020-10-19T14:33:31Z</time>
      </trkpt>
      <trkpt lat="46.15336" lon="4.58124">
        <ele>358.4</ele>
        <time>2020-10-19T14:33:32Z</time>
      </trkpt>
      <trkpt lat="46.15338" lon="4.58126">
        <ele>358.4</ele>
        <time>2020-10-19T14:33:33Z</time>
      </trkpt>
      <trkpt lat="46.15338" lon="4.58126">
        <ele>358.4</ele>
        <time>2020-10-19T14:33:34Z</time>
      </trkpt>
      <trkpt lat="46.1534" lon="4.58128">
        <ele>357.8</ele>
        <time>2020-10-19T14:33:35Z</time>
      </trkpt>
      <trkpt lat="46.1534" lon="4.58128">
        <ele>357.4</ele>
        <time>2020-10-19T14:33:36Z</time>
      </trkpt>
      <trkpt lat="46.15342" lon="4.5813">
        <ele>357</ele>
        <time>2020-10-19T14:33:37Z</time>
      </trkpt>
      <trkpt lat="46.15342" lon="4.5813">
        <ele>356.8</ele>
        <time>2020-10-19T14:33:38Z</time>
      </trkpt>
      <trkpt lat="46.15344" lon="4.58132">
        <ele>356.4</ele>
        <time>2020-10-19T14:33:39Z</time>
      </trkpt>
      <trkpt lat="46.15345" lon="4.58134">
        <ele>356.2</ele>
        <time>2020-10-19T14:33:40Z</time>
      </trkpt>
      <trkpt lat="46.15345" lon="4.58134">
        <ele>356</ele>
        <time>2020-10-19T14:33:41Z</time>
      </trkpt>
      <trkpt lat="46.15348" lon="4.58138">
        <ele>355.8</ele>
        <time>2020-10-19T14:33:42Z</time>
      </trkpt>
      <trkpt lat="46.15348" lon="4.58138">
        <ele>355.4</ele>
        <time>2020-10-19T14:33:43Z</time>
      </trkpt>
      <trkpt lat="46.1535" lon="4.58141">
        <ele>355.4</ele>
        <time>2020-10-19T14:33:44Z</time>
      </trkpt>
      <trkpt lat="46.1535" lon="4.58141">
        <ele>355.2</ele>
        <time>2020-10-19T14:33:45Z</time>
      </trkpt>
      <trkpt lat="46.15351" lon="4.58144">
        <ele>355</ele>
        <time>2020-10-19T14:33:46Z</time>
      </trkpt>
      <trkpt lat="46.15351" lon="4.58144">
        <ele>354.8</ele>
        <time>2020-10-19T14:33:47Z</time>
      </trkpt>
      <trkpt lat="46.15353" lon="4.58146">
        <ele>354.8</ele>
        <time>2020-10-19T14:33:48Z</time>
      </trkpt>
      <trkpt lat="46.15353" lon="4.58146">
        <ele>354.4</ele>
        <time>2020-10-19T14:33:49Z</time>
      </trkpt>
      <trkpt lat="46.15356" lon="4.58149">
        <ele>354.4</ele>
        <time>2020-10-19T14:33:50Z</time>
      </trkpt>
      <trkpt lat="46.15357" lon="4.58151">
        <ele>354.4</ele>
        <time>2020-10-19T14:33:51Z</time>
      </trkpt>
      <trkpt lat="46.15358" lon="4.58153">
        <ele>354.8</ele>
        <time>2020-10-19T14:33:52Z</time>
      </trkpt>
      <trkpt lat="46.15359" lon="4.58155">
        <ele>354.8</ele>
        <time>2020-10-19T14:33:53Z</time>
      </trkpt>
      <trkpt lat="46.15359" lon="4.58155">
        <ele>354.6</ele>
        <time>2020-10-19T14:33:54Z</time>
      </trkpt>
      <trkpt lat="46.15362" lon="4.58158">
        <ele>354.8</ele>
        <time>2020-10-19T14:33:55Z</time>
      </trkpt>
      <trkpt lat="46.15362" lon="4.58158">
        <ele>354.4</ele>
        <time>2020-10-19T14:33:56Z</time>
      </trkpt>
      <trkpt lat="46.15364" lon="4.58161">
        <ele>354.2</ele>
        <time>2020-10-19T14:33:57Z</time>
      </trkpt>
      <trkpt lat="46.15364" lon="4.58161">
        <ele>354.2</ele>
        <time>2020-10-19T14:33:58Z</time>
      </trkpt>
      <trkpt lat="46.15366" lon="4.58164">
        <ele>354</ele>
        <time>2020-10-19T14:33:59Z</time>
      </trkpt>
      <trkpt lat="46.15366" lon="4.58164">
        <ele>353.8</ele>
        <time>2020-10-19T14:34:00Z</time>
      </trkpt>
      <trkpt lat="46.15368" lon="4.58167">
        <ele>353.4</ele>
        <time>2020-10-19T14:34:01Z</time>
      </trkpt>
      <trkpt lat="46.15368" lon="4.58167">
        <ele>353.2</ele>
        <time>2020-10-19T14:34:02Z</time>
      </trkpt>
      <trkpt lat="46.1537" lon="4.5817">
        <ele>353</ele>
        <time>2020-10-19T14:34:03Z</time>
      </trkpt>
      <trkpt lat="46.15371" lon="4.58172">
        <ele>352.6</ele>
        <time>2020-10-19T14:34:04Z</time>
      </trkpt>
      <trkpt lat="46.15371" lon="4.58172">
        <ele>352.2</ele>
        <time>2020-10-19T14:34:05Z</time>
      </trkpt>
      <trkpt lat="46.15373" lon="4.58175">
        <ele>352</ele>
        <time>2020-10-19T14:34:06Z</time>
      </trkpt>
      <trkpt lat="46.15375" lon="4.58177">
        <ele>351.6</ele>
        <time>2020-10-19T14:34:07Z</time>
      </trkpt>
      <trkpt lat="46.15376" lon="4.58179">
        <ele>351.4</ele>
        <time>2020-10-19T14:34:08Z</time>
      </trkpt>
      <trkpt lat="46.15376" lon="4.58179">
        <ele>351</ele>
        <time>2020-10-19T14:34:09Z</time>
      </trkpt>
      <trkpt lat="46.15379" lon="4.58182">
        <ele>351</ele>
        <time>2020-10-19T14:34:10Z</time>
      </trkpt>
      <trkpt lat="46.15379" lon="4.58182">
        <ele>351</ele>
        <time>2020-10-19T14:34:11Z</time>
      </trkpt>
      <trkpt lat="46.1538" lon="4.58185">
        <ele>351</ele>
        <time>2020-10-19T14:34:12Z</time>
      </trkpt>
      <trkpt lat="46.15382" lon="4.58187">
        <ele>350.6</ele>
        <time>2020-10-19T14:34:13Z</time>
      </trkpt>
      <trkpt lat="46.15383" lon="4.5819">
        <ele>350.4</ele>
        <time>2020-10-19T14:34:14Z</time>
      </trkpt>
      <trkpt lat="46.15383" lon="4.5819">
        <ele>350.2</ele>
        <time>2020-10-19T14:34:15Z</time>
      </trkpt>
      <trkpt lat="46.15385" lon="4.58193">
        <ele>350</ele>
        <time>2020-10-19T14:34:16Z</time>
      </trkpt>
      <trkpt lat="46.15385" lon="4.58193">
        <ele>349.8</ele>
        <time>2020-10-19T14:34:17Z</time>
      </trkpt>
      <trkpt lat="46.15387" lon="4.58196">
        <ele>349.6</ele>
        <time>2020-10-19T14:34:18Z</time>
      </trkpt>
      <trkpt lat="46.15388" lon="4.58198">
        <ele>349.6</ele>
        <time>2020-10-19T14:34:19Z</time>
      </trkpt>
      <trkpt lat="46.15388" lon="4.58198">
        <ele>349.2</ele>
        <time>2020-10-19T14:34:20Z</time>
      </trkpt>
      <trkpt lat="46.1539" lon="4.58202">
        <ele>349</ele>
        <time>2020-10-19T14:34:21Z</time>
      </trkpt>
      <trkpt lat="46.1539" lon="4.58202">
        <ele>348.8</ele>
        <time>2020-10-19T14:34:22Z</time>
      </trkpt>
      <trkpt lat="46.15391" lon="4.58206">
        <ele>348.6</ele>
        <time>2020-10-19T14:34:23Z</time>
      </trkpt>
      <trkpt lat="46.15391" lon="4.58206">
        <ele>348.2</ele>
        <time>2020-10-19T14:34:24Z</time>
      </trkpt>
      <trkpt lat="46.15393" lon="4.58208">
        <ele>347.8</ele>
        <time>2020-10-19T14:34:25Z</time>
      </trkpt>
      <trkpt lat="46.15395" lon="4.5821">
        <ele>347.6</ele>
        <time>2020-10-19T14:34:26Z</time>
      </trkpt>
      <trkpt lat="46.15395" lon="4.5821">
        <ele>347.4</ele>
        <time>2020-10-19T14:34:27Z</time>
      </trkpt>
      <trkpt lat="46.15397" lon="4.58213">
        <ele>347</ele>
        <time>2020-10-19T14:34:28Z</time>
      </trkpt>
      <trkpt lat="46.15397" lon="4.58213">
        <ele>347</ele>
        <time>2020-10-19T14:34:29Z</time>
      </trkpt>
      <trkpt lat="46.15398" lon="4.58215">
        <ele>346.6</ele>
        <time>2020-10-19T14:34:30Z</time>
      </trkpt>
      <trkpt lat="46.15399" lon="4.58217">
        <ele>346.6</ele>
        <time>2020-10-19T14:34:31Z</time>
      </trkpt>
      <trkpt lat="46.154" lon="4.58219">
        <ele>346.4</ele>
        <time>2020-10-19T14:34:32Z</time>
      </trkpt>
      <trkpt lat="46.15401" lon="4.5822">
        <ele>346.4</ele>
        <time>2020-10-19T14:34:33Z</time>
      </trkpt>
      <trkpt lat="46.15402" lon="4.58222">
        <ele>346.2</ele>
        <time>2020-10-19T14:34:34Z</time>
      </trkpt>
      <trkpt lat="46.15403" lon="4.58224">
        <ele>346</ele>
        <time>2020-10-19T14:34:35Z</time>
      </trkpt>
      <trkpt lat="46.15404" lon="4.58226">
        <ele>345.8</ele>
        <time>2020-10-19T14:34:36Z</time>
      </trkpt>
      <trkpt lat="46.15405" lon="4.58227">
        <ele>345.6</ele>
        <time>2020-10-19T14:34:37Z</time>
      </trkpt>
      <trkpt lat="46.15406" lon="4.58229">
        <ele>345.2</ele>
        <time>2020-10-19T14:34:38Z</time>
      </trkpt>
      <trkpt lat="46.15408" lon="4.58231">
        <ele>345</ele>
        <time>2020-10-19T14:34:39Z</time>
      </trkpt>
      <trkpt lat="46.15408" lon="4.58231">
        <ele>345</ele>
        <time>2020-10-19T14:34:40Z</time>
      </trkpt>
      <trkpt lat="46.1541" lon="4.58234">
        <ele>344.8</ele>
        <time>2020-10-19T14:34:41Z</time>
      </trkpt>
      <trkpt lat="46.1541" lon="4.58234">
        <ele>344.6</ele>
        <time>2020-10-19T14:34:42Z</time>
      </trkpt>
      <trkpt lat="46.15411" lon="4.58237">
        <ele>344.2</ele>
        <time>2020-10-19T14:34:43Z</time>
      </trkpt>
      <trkpt lat="46.15411" lon="4.58237">
        <ele>343.8</ele>
        <time>2020-10-19T14:34:44Z</time>
      </trkpt>
      <trkpt lat="46.15413" lon="4.58239">
        <ele>343.4</ele>
        <time>2020-10-19T14:34:45Z</time>
      </trkpt>
      <trkpt lat="46.15413" lon="4.58239">
        <ele>343</ele>
        <time>2020-10-19T14:34:46Z</time>
      </trkpt>
      <trkpt lat="46.15414" lon="4.58242">
        <ele>342.8</ele>
        <time>2020-10-19T14:34:47Z</time>
      </trkpt>
      <trkpt lat="46.15414" lon="4.58242">
        <ele>342.6</ele>
        <time>2020-10-19T14:34:48Z</time>
      </trkpt>
      <trkpt lat="46.15415" lon="4.58247">
        <ele>342.2</ele>
        <time>2020-10-19T14:34:49Z</time>
      </trkpt>
      <trkpt lat="46.15415" lon="4.58247">
        <ele>342.2</ele>
        <time>2020-10-19T14:34:50Z</time>
      </trkpt>
      <trkpt lat="46.15416" lon="4.5825">
        <ele>341.8</ele>
        <time>2020-10-19T14:34:51Z</time>
      </trkpt>
      <trkpt lat="46.15416" lon="4.5825">
        <ele>341.4</ele>
        <time>2020-10-19T14:34:52Z</time>
      </trkpt>
      <trkpt lat="46.15416" lon="4.58253">
        <ele>341.2</ele>
        <time>2020-10-19T14:34:53Z</time>
      </trkpt>
      <trkpt lat="46.15416" lon="4.58253">
        <ele>341</ele>
        <time>2020-10-19T14:34:54Z</time>
      </trkpt>
      <trkpt lat="46.15417" lon="4.58257">
        <ele>341</ele>
        <time>2020-10-19T14:34:55Z</time>
      </trkpt>
      <trkpt lat="46.15417" lon="4.58257">
        <ele>340.8</ele>
        <time>2020-10-19T14:34:56Z</time>
      </trkpt>
      <trkpt lat="46.15419" lon="4.58261">
        <ele>340.2</ele>
        <time>2020-10-19T14:34:57Z</time>
      </trkpt>
      <trkpt lat="46.15419" lon="4.58261">
        <ele>340</ele>
        <time>2020-10-19T14:34:58Z</time>
      </trkpt>
      <trkpt lat="46.15421" lon="4.58266">
        <ele>340</ele>
        <time>2020-10-19T14:34:59Z</time>
      </trkpt>
      <trkpt lat="46.15421" lon="4.58266">
        <ele>339.6</ele>
        <time>2020-10-19T14:35:00Z</time>
      </trkpt>
      <trkpt lat="46.15421" lon="4.5827">
        <ele>339.4</ele>
        <time>2020-10-19T14:35:01Z</time>
      </trkpt>
      <trkpt lat="46.15421" lon="4.5827">
        <ele>339</ele>
        <time>2020-10-19T14:35:02Z</time>
      </trkpt>
      <trkpt lat="46.15422" lon="4.58273">
        <ele>339</ele>
        <time>2020-10-19T14:35:03Z</time>
      </trkpt>
      <trkpt lat="46.15422" lon="4.58273">
        <ele>338.8</ele>
        <time>2020-10-19T14:35:04Z</time>
      </trkpt>
      <trkpt lat="46.15421" lon="4.58278">
        <ele>338.6</ele>
        <time>2020-10-19T14:35:05Z</time>
      </trkpt>
      <trkpt lat="46.15421" lon="4.58278">
        <ele>338.4</ele>
        <time>2020-10-19T14:35:06Z</time>
      </trkpt>
      <trkpt lat="46.15419" lon="4.58281">
        <ele>338.2</ele>
        <time>2020-10-19T14:35:07Z</time>
      </trkpt>
      <trkpt lat="46.15417" lon="4.58282">
        <ele>338</ele>
        <time>2020-10-19T14:35:08Z</time>
      </trkpt>
      <trkpt lat="46.15417" lon="4.58282">
        <ele>337.8</ele>
        <time>2020-10-19T14:35:09Z</time>
      </trkpt>
      <trkpt lat="46.15414" lon="4.58284">
        <ele>337.8</ele>
        <time>2020-10-19T14:35:10Z</time>
      </trkpt>
      <trkpt lat="46.15414" lon="4.58284">
        <ele>337.6</ele>
        <time>2020-10-19T14:35:11Z</time>
      </trkpt>
      <trkpt lat="46.15414" lon="4.58284">
        <ele>337.4</ele>
        <time>2020-10-19T14:35:12Z</time>
      </trkpt>
      <trkpt lat="46.15414" lon="4.58284">
        <ele>337.2</ele>
        <time>2020-10-19T14:35:13Z</time>
      </trkpt>
      <trkpt lat="46.15414" lon="4.58284">
        <ele>337.2</ele>
        <time>2020-10-19T14:35:14Z</time>
      </trkpt>
      <trkpt lat="46.15414" lon="4.58284">
        <ele>337.2</ele>
        <time>2020-10-19T14:35:15Z</time>
      </trkpt>
      <trkpt lat="46.15414" lon="4.58284">
        <ele>337</ele>
        <time>2020-10-19T14:35:16Z</time>
      </trkpt>
      <trkpt lat="46.15414" lon="4.58284">
        <ele>336.8</ele>
        <time>2020-10-19T14:35:17Z</time>
      </trkpt>
      <trkpt lat="46.15414" lon="4.58284">
        <ele>337</ele>
        <time>2020-10-19T14:35:18Z</time>
      </trkpt>
      <trkpt lat="46.15414" lon="4.58284">
        <ele>337</ele>
        <time>2020-10-19T14:35:19Z</time>
      </trkpt>
      <trkpt lat="46.15414" lon="4.58284">
        <ele>336.8</ele>
        <time>2020-10-19T14:35:20Z</time>
      </trkpt>
      <trkpt lat="46.15414" lon="4.58284">
        <ele>336.8</ele>
        <time>2020-10-19T14:35:21Z</time>
      </trkpt>
      <trkpt lat="46.15414" lon="4.58284">
        <ele>337</ele>
        <time>2020-10-19T14:35:22Z</time>
      </trkpt>
      <trkpt lat="46.15414" lon="4.58284">
        <ele>337.2</ele>
        <time>2020-10-19T14:35:23Z</time>
      </trkpt>
      <trkpt lat="46.15414" lon="4.58284">
        <ele>337.2</ele>
        <time>2020-10-19T14:35:24Z</time>
      </trkpt>
      <trkpt lat="46.15414" lon="4.58284">
        <ele>337.2</ele>
        <time>2020-10-19T14:35:25Z</time>
      </trkpt>
      <trkpt lat="46.15413" lon="4.58285">
        <ele>337</ele>
        <time>2020-10-19T14:35:26Z</time>
      </trkpt>
      <trkpt lat="46.15413" lon="4.58285">
        <ele>337</ele>
        <time>2020-10-19T14:35:27Z</time>
      </trkpt>
      <trkpt lat="46.15413" lon="4.58285">
        <ele>337.2</ele>
        <time>2020-10-19T14:35:28Z</time>
      </trkpt>
      <trkpt lat="46.15413" lon="4.58285">
        <ele>337.4</ele>
        <time>2020-10-19T14:35:29Z</time>
      </trkpt>
      <trkpt lat="46.15413" lon="4.58285">
        <ele>337.4</ele>
        <time>2020-10-19T14:35:30Z</time>
      </trkpt>
      <trkpt lat="46.15414" lon="4.58283">
        <ele>337.6</ele>
        <time>2020-10-19T14:35:31Z</time>
      </trkpt>
      <trkpt lat="46.15414" lon="4.58283">
        <ele>337.8</ele>
        <time>2020-10-19T14:35:32Z</time>
      </trkpt>
      <trkpt lat="46.15414" lon="4.58283">
        <ele>337.4</ele>
        <time>2020-10-19T14:35:33Z</time>
      </trkpt>
      <trkpt lat="46.15414" lon="4.58283">
        <ele>337.4</ele>
        <time>2020-10-19T14:35:34Z</time>
      </trkpt>
      <trkpt lat="46.15414" lon="4.58283">
        <ele>337</ele>
        <time>2020-10-19T14:35:35Z</time>
      </trkpt>
      <trkpt lat="46.15414" lon="4.58283">
        <ele>337.2</ele>
        <time>2020-10-19T14:35:36Z</time>
      </trkpt>
      <trkpt lat="46.15414" lon="4.58283">
        <ele>337.4</ele>
        <time>2020-10-19T14:35:37Z</time>
      </trkpt>
      <trkpt lat="46.15414" lon="4.58283">
        <ele>337.4</ele>
        <time>2020-10-19T14:35:38Z</time>
      </trkpt>
      <trkpt lat="46.15414" lon="4.58283">
        <ele>337.4</ele>
        <time>2020-10-19T14:35:39Z</time>
      </trkpt>
      <trkpt lat="46.15414" lon="4.58283">
        <ele>337.4</ele>
        <time>2020-10-19T14:35:40Z</time>
      </trkpt>
      <trkpt lat="46.15414" lon="4.58283">
        <ele>337.2</ele>
        <time>2020-10-19T14:35:41Z</time>
      </trkpt>
      <trkpt lat="46.15414" lon="4.58283">
        <ele>337.4</ele>
        <time>2020-10-19T14:35:42Z</time>
      </trkpt>
      <trkpt lat="46.15414" lon="4.58283">
        <ele>337.4</ele>
        <time>2020-10-19T14:35:43Z</time>
      </trkpt>
      <trkpt lat="46.15414" lon="4.58283">
        <ele>337.4</ele>
        <time>2020-10-19T14:35:44Z</time>
      </trkpt>
      <trkpt lat="46.15414" lon="4.58283">
        <ele>337</ele>
        <time>2020-10-19T14:35:45Z</time>
      </trkpt>
      <trkpt lat="46.15414" lon="4.58283">
        <ele>337</ele>
        <time>2020-10-19T14:35:46Z</time>
      </trkpt>
      <trkpt lat="46.15414" lon="4.58283">
        <ele>337</ele>
        <time>2020-10-19T14:35:47Z</time>
      </trkpt>
      <trkpt lat="46.15414" lon="4.58283">
        <ele>337.4</ele>
        <time>2020-10-19T14:35:48Z</time>
      </trkpt>
      <trkpt lat="46.15414" lon="4.58283">
        <ele>337.4</ele>
        <time>2020-10-19T14:35:49Z</time>
      </trkpt>
      <trkpt lat="46.15413" lon="4.58281">
        <ele>337.4</ele>
        <time>2020-10-19T14:35:50Z</time>
      </trkpt>
      <trkpt lat="46.15413" lon="4.58281">
        <ele>337.2</ele>
        <time>2020-10-19T14:35:51Z</time>
      </trkpt>
      <trkpt lat="46.15413" lon="4.58281">
        <ele>337.2</ele>
        <time>2020-10-19T14:35:52Z</time>
      </trkpt>
      <trkpt lat="46.15413" lon="4.58281">
        <ele>337.4</ele>
        <time>2020-10-19T14:35:53Z</time>
      </trkpt>
      <trkpt lat="46.15413" lon="4.58281">
        <ele>337.4</ele>
        <time>2020-10-19T14:35:54Z</time>
      </trkpt>
      <trkpt lat="46.15413" lon="4.58281">
        <ele>337.6</ele>
        <time>2020-10-19T14:35:55Z</time>
      </trkpt>
      <trkpt lat="46.15425" lon="4.5829">
        <ele>351.1</ele>
      </trkpt>
      <trkpt lat="46.15438" lon="4.58324">
        <ele>348.4</ele>
      </trkpt>
      <trkpt lat="46.15472" lon="4.58418">
        <ele>325.7</ele>
      </trkpt>
      <trkpt lat="46.15477" lon="4.58449">
        <ele>323.8</ele>
      </trkpt>
      <trkpt lat="46.15481" lon="4.58466">
        <ele>321.8</ele>
      </trkpt>
      <trkpt lat="46.15484" lon="4.58475">
        <ele>320.2</ele>
      </trkpt>
      <trkpt lat="46.15488" lon="4.58486">
        <ele>317.6</ele>
      </trkpt>
      <trkpt lat="46.15492" lon="4.58495">
        <ele>314.6</ele>
      </trkpt>
      <trkpt lat="46.15498" lon="4.58507">
        <ele>311.3</ele>
      </trkpt>
      <trkpt lat="46.15506" lon="4.58525">
        <ele>309.6</ele>
      </trkpt>
      <trkpt lat="46.15516" lon="4.58538">
        <ele>309.6</ele>
      </trkpt>
      <trkpt lat="46.15515" lon="4.58541">
        <ele>309.5</ele>
      </trkpt>
      <trkpt lat="46.15515" lon="4.58541">
        <ele>309.5</ele>
      </trkpt>
      <trkpt lat="46.15512" lon="4.58572">
        <ele>309</ele>
      </trkpt>
      <trkpt lat="46.15512" lon="4.5856">
        <ele>309.3</ele>
      </trkpt>
      <trkpt lat="46.15512" lon="4.58586">
        <ele>309.4</ele>
      </trkpt>
      <trkpt lat="46.15512" lon="4.58586">
        <ele>309.4</ele>
      </trkpt>
      <trkpt lat="46.15513" lon="4.58601">
        <ele>310</ele>
      </trkpt>
      <trkpt lat="46.15512" lon="4.5866">
        <ele>309.7</ele>
      </trkpt>
      <trkpt lat="46.15512" lon="4.58664">
        <ele>309.6</ele>
      </trkpt>
    </trkseg>
  </trk>
</gpx>